createdAt,value
2023-02-23T00:00:49.354Z,97918.75
2023-02-23T00:03:15.845Z,97888.66
2023-02-23T00:05:42.293Z,97886.00
2023-02-23T00:08:09.328Z,97874.03
2023-02-23T00:10:35.870Z,97854.34
2023-02-23T00:13:02.343Z,97838.66
2023-02-23T00:15:29.904Z,97798.72
2023-02-23T00:18:00.063Z,97788.56
2023-02-23T00:20:29.126Z,97786.19
2023-02-23T00:22:57.292Z,97780.63
2023-02-23T00:25:25.048Z,97771.06
2023-02-23T00:27:52.562Z,97747.38
2023-02-23T00:30:19.967Z,97738.06
2023-02-23T00:32:46.830Z,97722.03
2023-02-23T00:35:19.532Z,97729.78
2023-02-23T00:37:49.011Z,97725.81
2023-02-23T00:40:17.049Z,97725.00
2023-02-23T00:42:45.224Z,97716.75
2023-02-23T00:45:12.641Z,97702.56
2023-02-23T00:47:40.643Z,97702.06
2023-02-23T00:50:07.872Z,97703.41
2023-02-23T00:52:34.383Z,97693.81
2023-02-23T00:55:00.868Z,97683.47
2023-02-23T00:57:27.324Z,97663.97
2023-02-23T00:59:53.772Z,97669.84
2023-02-23T01:02:20.424Z,97665.59
2023-02-23T01:04:46.893Z,97653.38
2023-02-23T01:07:13.439Z,97647.25
2023-02-23T01:09:40.048Z,97633.66
2023-02-23T01:12:07.531Z,97621.28
2023-02-23T01:14:34.211Z,97626.97
2023-02-23T01:17:00.657Z,97620.88
2023-02-23T01:19:27.717Z,97608.63
2023-02-23T01:21:54.166Z,97589.97
2023-02-23T01:24:21.344Z,97591.75
2023-02-23T01:26:47.849Z,97598.41
2023-02-23T01:29:15.777Z,97583.59
2023-02-23T01:31:44.484Z,97588.38
2023-02-23T01:34:12.223Z,97583.06
2023-02-23T01:36:39.760Z,97582.44
2023-02-23T01:39:07.831Z,97573.88
2023-02-23T01:41:35.519Z,97578.69
2023-02-23T01:44:06.520Z,97575.28
2023-02-23T01:46:34.372Z,97573.13
2023-02-23T01:49:01.427Z,97558.75
2023-02-23T01:51:31.205Z,97556.75
2023-02-23T01:54:00.250Z,97556.53
2023-02-23T01:56:29.602Z,97555.50
2023-02-23T01:58:57.840Z,97549.38
2023-02-23T02:01:24.414Z,97553.13
2023-02-23T02:03:50.871Z,97541.56
2023-02-23T02:06:18.394Z,97542.38
2023-02-23T02:08:47.438Z,97542.72
2023-02-23T02:11:30.740Z,97540.31
2023-02-23T02:14:05.359Z,97535.28
2023-02-23T02:16:45.888Z,97534.47
2023-02-23T02:19:18.715Z,97516.31
2023-02-23T02:21:52.344Z,97521.53
2023-02-23T02:24:34.516Z,97519.94
2023-02-23T02:27:05.201Z,97518.88
2023-02-23T02:29:50.163Z,97525.28
2023-02-23T02:32:25.779Z,97532.19
2023-02-23T02:34:52.289Z,97518.84
2023-02-23T02:37:33.278Z,97519.34
2023-02-23T02:40:23.349Z,97523.59
2023-02-23T02:43:09.355Z,97524.59
2023-02-23T02:45:38.844Z,97529.94
2023-02-23T02:48:20.635Z,97529.94
2023-02-23T02:50:55.483Z,97530.97
2023-02-23T02:53:44.798Z,97528.81
2023-02-23T02:56:13.309Z,97518.63
2023-02-23T02:58:42.404Z,97524.75
2023-02-23T03:01:30.848Z,97525.00
2023-02-23T03:04:17.386Z,97532.69
2023-02-23T03:07:04.806Z,97537.16
2023-02-23T03:09:49.893Z,97540.38
2023-02-23T03:12:47.260Z,97539.59
2023-02-23T03:15:38.287Z,97541.69
2023-02-23T03:18:49.449Z,97537.13
2023-02-23T03:21:38.588Z,97550.53
2023-02-23T03:24:27.865Z,97534.81
2023-02-23T03:27:17.500Z,97507.63
2023-02-23T03:30:19.677Z,97471.97
2023-02-23T03:33:07.037Z,97475.88
2023-02-23T03:36:01.260Z,97464.41
2023-02-23T03:38:51.141Z,97445.84
2023-02-23T03:41:37.058Z,97425.38
2023-02-23T03:44:24.542Z,97397.25
2023-02-23T03:47:11.377Z,97379.06
2023-02-23T03:49:58.124Z,97375.72
2023-02-23T03:52:47.225Z,97358.47
2023-02-23T03:55:36.720Z,97354.22
2023-02-23T03:58:24.025Z,97325.50
2023-02-23T04:01:10.977Z,97321.25
2023-02-23T04:03:58.421Z,97309.34
2023-02-23T04:06:47.598Z,97300.84
2023-02-23T04:09:32.991Z,97281.63
2023-02-23T04:12:36.837Z,97267.31
2023-02-23T04:15:12.186Z,97269.34
2023-02-23T04:17:39.676Z,97256.59
2023-02-23T04:20:07.168Z,97290.94
2023-02-23T04:22:35.576Z,97276.31
2023-02-23T04:25:02.188Z,97268.09
2023-02-23T04:27:28.713Z,97266.03
2023-02-23T04:29:55.248Z,97262.94
2023-02-23T04:32:21.869Z,97251.75
2023-02-23T04:34:48.746Z,97234.69
2023-02-23T04:37:15.367Z,97223.25
2023-02-23T04:39:43.001Z,97204.06
2023-02-23T04:42:10.238Z,97212.13
2023-02-23T04:44:36.689Z,97197.84
2023-02-23T04:47:03.192Z,97196.53
2023-02-23T04:49:29.729Z,97186.19
2023-02-23T04:51:56.228Z,97159.34
2023-02-23T04:54:22.675Z,97160.78
2023-02-23T04:56:49.251Z,97163.59
2023-02-23T04:59:15.735Z,97162.63
2023-02-23T05:01:42.314Z,97155.72
2023-02-23T05:04:08.831Z,97138.16
2023-02-23T05:06:35.395Z,97125.63
2023-02-23T05:09:03.293Z,97105.63
2023-02-23T05:11:30.155Z,97104.81
2023-02-23T05:13:56.612Z,97098.28
2023-02-23T05:16:23.685Z,97093.75
2023-02-23T05:18:50.382Z,97082.50
2023-02-23T05:21:17.257Z,97061.41
2023-02-23T05:23:43.906Z,97063.84
2023-02-23T05:26:11.318Z,97057.84
2023-02-23T05:28:38.932Z,97055.19
2023-02-23T05:31:06.286Z,97046.09
2023-02-23T05:33:33.812Z,97043.22
2023-02-23T05:36:01.087Z,97038.41
2023-02-23T05:38:27.607Z,97027.84
2023-02-23T05:40:54.069Z,97031.59
2023-02-23T05:43:20.573Z,97028.41
2023-02-23T05:45:47.053Z,97027.84
2023-02-23T05:48:14.071Z,97016.56
2023-02-23T05:50:40.759Z,97015.28
2023-02-23T05:53:07.256Z,97026.06
2023-02-23T05:55:33.705Z,97021.31
2023-02-23T05:58:00.277Z,97022.91
2023-02-23T06:00:26.741Z,97015.78
2023-02-23T06:02:54.064Z,97015.38
2023-02-23T06:05:20.626Z,97015.19
2023-02-23T06:07:47.504Z,97012.22
2023-02-23T06:10:14.448Z,97010.84
2023-02-23T06:12:41.129Z,97014.50
2023-02-23T06:15:07.871Z,97009.22
2023-02-23T06:17:35.416Z,97021.19
2023-02-23T06:20:05.111Z,97023.84
2023-02-23T06:22:32.076Z,97029.19
2023-02-23T06:24:58.746Z,97030.75
2023-02-23T06:27:25.896Z,97036.50
2023-02-23T06:29:52.340Z,97044.38
2023-02-23T06:32:20.341Z,97051.91
2023-02-23T06:34:46.864Z,97067.13
2023-02-23T06:37:13.364Z,97074.34
2023-02-23T06:39:39.883Z,97079.44
2023-02-23T06:42:06.408Z,97083.69
2023-02-23T06:44:35.444Z,97088.44
2023-02-23T06:47:03.651Z,97082.75
2023-02-23T06:49:30.248Z,97055.75
2023-02-23T06:51:56.976Z,97049.34
2023-02-23T06:54:23.663Z,97041.81
2023-02-23T06:56:50.588Z,97029.41
2023-02-23T06:59:17.103Z,97003.81
2023-02-23T07:01:44.803Z,96983.78
2023-02-23T07:04:11.765Z,96961.03
2023-02-23T07:06:38.339Z,96942.03
2023-02-23T07:09:05.795Z,96938.44
2023-02-23T07:11:32.441Z,96946.41
2023-02-23T07:13:59.324Z,96931.00
2023-02-23T07:16:27.202Z,96921.13
2023-02-23T07:18:54.192Z,96897.19
2023-02-23T07:21:20.853Z,96910.66
2023-02-23T07:23:50.084Z,96916.69
2023-02-23T07:26:18.469Z,96911.38
2023-02-23T07:28:45.186Z,96900.50
2023-02-23T07:31:11.762Z,96893.78
2023-02-23T07:33:38.997Z,96870.97
2023-02-23T07:36:05.956Z,96879.44
2023-02-23T07:38:32.733Z,96895.44
2023-02-23T07:40:59.239Z,96887.25
2023-02-23T07:43:25.724Z,96884.50
2023-02-23T07:45:52.286Z,96875.16
2023-02-23T07:48:19.355Z,96865.50
2023-02-23T07:50:46.142Z,96869.34
2023-02-23T07:53:13.283Z,96861.38
2023-02-23T07:55:40.526Z,96853.22
2023-02-23T07:58:07.081Z,96835.53
2023-02-23T08:00:34.334Z,96836.50
2023-02-23T08:03:01.481Z,96851.00
2023-02-23T08:05:28.535Z,96849.28
2023-02-23T08:07:56.006Z,96857.41
2023-02-23T08:10:22.743Z,96832.88
2023-02-23T08:12:49.307Z,96837.13
2023-02-23T08:15:16.000Z,96836.75
2023-02-23T08:17:43.476Z,96819.53
2023-02-23T08:20:10.443Z,96820.31
2023-02-23T08:22:48.997Z,96811.72
2023-02-23T08:25:16.669Z,96829.28
2023-02-23T08:27:43.132Z,96836.94
2023-02-23T08:30:10.027Z,96835.19
2023-02-23T08:32:36.538Z,96832.91
2023-02-23T08:35:03.107Z,96826.53
2023-02-23T08:37:30.283Z,96845.94
2023-02-23T08:39:57.638Z,96853.47
2023-02-23T08:42:24.082Z,96858.00
2023-02-23T08:44:50.593Z,96853.81
2023-02-23T08:47:21.869Z,96846.38
2023-02-23T08:49:48.493Z,96863.16
2023-02-23T08:52:15.006Z,96879.31
2023-02-23T08:54:41.451Z,96888.22
2023-02-23T08:57:07.989Z,96880.59
2023-02-23T08:59:34.439Z,96880.00
2023-02-23T09:02:00.952Z,96888.50
2023-02-23T09:04:27.439Z,96881.28
2023-02-23T09:06:54.457Z,96877.59
2023-02-23T09:09:20.980Z,96890.06
2023-02-23T09:11:47.446Z,96913.31
2023-02-23T09:14:13.964Z,96917.25
2023-02-23T09:16:40.774Z,96924.69
2023-02-23T09:19:07.321Z,96949.72
2023-02-23T09:21:34.446Z,96988.09
2023-02-23T09:24:01.758Z,97014.16
2023-02-23T09:26:29.361Z,97043.06
2023-02-23T09:28:58.018Z,97051.31
2023-02-23T09:31:24.806Z,97071.91
2023-02-23T09:33:51.894Z,97102.25
2023-02-23T09:36:23.058Z,97116.72
2023-02-23T09:38:53.743Z,97115.78
2023-02-23T09:41:23.179Z,97126.88
2023-02-23T09:44:11.975Z,97136.78
2023-02-23T09:46:43.841Z,97151.06
2023-02-23T09:49:13.855Z,97165.53
2023-02-23T09:51:41.867Z,97168.44
2023-02-23T09:54:12.640Z,97156.28
2023-02-23T09:56:48.634Z,97166.97
2023-02-23T09:59:19.967Z,97184.56
2023-02-23T10:01:49.311Z,97204.16
2023-02-23T10:04:38.564Z,97207.53
2023-02-23T10:07:06.184Z,97240.69
2023-02-23T10:09:55.746Z,97271.75
2023-02-23T10:12:40.932Z,97287.22
2023-02-23T10:15:30.389Z,97277.72
2023-02-23T10:18:03.482Z,97298.00
2023-02-23T10:20:37.224Z,97306.16
2023-02-23T10:23:07.291Z,97271.97
2023-02-23T10:25:38.673Z,97223.81
2023-02-23T10:28:05.297Z,97194.94
2023-02-23T10:30:34.624Z,97175.38
2023-02-23T10:33:22.640Z,97162.13
2023-02-23T10:35:52.390Z,97156.13
2023-02-23T10:38:20.503Z,97133.00
2023-02-23T10:40:50.496Z,97159.31
2023-02-23T10:43:18.374Z,97157.88
2023-02-23T10:45:45.985Z,97144.50
2023-02-23T10:48:21.572Z,97128.38
2023-02-23T10:50:49.692Z,97119.31
2023-02-23T10:53:18.650Z,97157.50
2023-02-23T10:55:46.133Z,97168.81
2023-02-23T10:58:18.934Z,97161.25
2023-02-23T11:00:53.188Z,97166.91
2023-02-23T11:03:43.227Z,97181.03
2023-02-23T11:06:43.577Z,97230.38
2023-02-23T11:09:43.338Z,97217.66
2023-02-23T11:12:25.349Z,97214.34
2023-02-23T11:14:56.069Z,97261.63
2023-02-23T11:17:28.759Z,97264.13
2023-02-23T11:20:00.732Z,97277.38
2023-02-23T11:22:32.296Z,97269.81
2023-02-23T11:25:01.270Z,97308.13
2023-02-23T11:27:28.248Z,97318.50
2023-02-23T11:29:57.536Z,97312.09
2023-02-23T11:32:27.990Z,97307.63
2023-02-23T11:35:21.373Z,97325.78
2023-02-23T11:37:48.719Z,97329.81
2023-02-23T11:40:35.474Z,97311.00
2023-02-23T11:43:02.119Z,97327.72
2023-02-23T11:45:33.695Z,97350.59
2023-02-23T11:48:02.289Z,97346.47
2023-02-23T11:50:29.972Z,97322.22
2023-02-23T11:53:01.403Z,97334.66
2023-02-23T11:55:29.156Z,97346.19
2023-02-23T11:58:09.551Z,97346.94
2023-02-23T12:00:36.065Z,97333.69
2023-02-23T12:03:03.255Z,97354.59
2023-02-23T12:05:31.109Z,97339.91
2023-02-23T12:08:14.795Z,97331.97
2023-02-23T12:10:47.617Z,97313.84
2023-02-23T12:13:15.244Z,97313.59
2023-02-23T12:15:59.799Z,97327.53
2023-02-23T12:18:28.282Z,97318.84
2023-02-23T12:20:57.890Z,97315.53
2023-02-23T12:23:30.449Z,97344.31
2023-02-23T12:26:13.916Z,97363.63
2023-02-23T12:28:49.354Z,97360.56
2023-02-23T12:31:31.728Z,97354.13
2023-02-23T12:34:01.394Z,97381.88
2023-02-23T12:36:38.496Z,97397.34
2023-02-23T12:39:24.532Z,97380.50
2023-02-23T12:42:00.081Z,97379.22
2023-02-23T12:44:37.241Z,97401.22
2023-02-23T12:47:20.152Z,97399.25
2023-02-23T12:49:53.937Z,97382.84
2023-02-23T12:52:23.212Z,97362.69
2023-02-23T12:54:50.792Z,97393.31
2023-02-23T12:57:38.680Z,97383.19
2023-02-23T13:00:31.867Z,97370.06
2023-02-23T13:03:30.512Z,97360.75
2023-02-23T13:06:19.178Z,97418.97
2023-02-23T13:08:45.606Z,97417.78
2023-02-23T13:11:30.261Z,97416.16
2023-02-23T13:13:59.957Z,97452.94
2023-02-23T13:16:34.074Z,97457.81
2023-02-23T13:19:12.860Z,97458.28
2023-02-23T13:21:41.775Z,97507.81
2023-02-23T13:24:20.217Z,97490.25
2023-02-23T13:26:59.002Z,97460.38
2023-02-23T13:29:39.878Z,97449.03
2023-02-23T13:32:12.369Z,97487.53
2023-02-23T13:34:48.125Z,97477.03
2023-02-23T13:37:17.166Z,97492.16
2023-02-23T13:39:49.475Z,97495.81
2023-02-23T13:42:22.204Z,97518.00
2023-02-23T13:44:49.323Z,97506.22
2023-02-23T13:47:21.822Z,97501.16
2023-02-23T13:49:56.709Z,97480.69
2023-02-23T13:52:32.720Z,97511.50
2023-02-23T13:55:05.226Z,97519.31
2023-02-23T13:57:32.101Z,97538.81
2023-02-23T13:59:59.322Z,97528.94
2023-02-23T14:02:28.952Z,97534.53
2023-02-23T14:05:17.475Z,97578.34
2023-02-23T14:07:45.589Z,97576.91
2023-02-23T14:10:23.107Z,97580.25
2023-02-23T14:13:09.304Z,97565.28
2023-02-23T14:15:35.734Z,97567.53
2023-02-23T14:18:03.348Z,97561.19
2023-02-23T14:20:38.800Z,97552.66
2023-02-23T14:23:14.932Z,97541.47
2023-02-23T14:25:46.700Z,97548.41
2023-02-23T14:28:34.800Z,97557.50
2023-02-23T14:31:13.269Z,97553.66
2023-02-23T14:33:40.999Z,97532.34
2023-02-23T14:36:27.472Z,97548.31
2023-02-23T14:38:56.831Z,97553.25
2023-02-23T14:41:25.245Z,97523.34
2023-02-23T14:43:55.325Z,97482.06
2023-02-23T14:46:23.556Z,97470.47
2023-02-23T14:49:00.477Z,97435.44
2023-02-23T14:51:43.374Z,97407.66
2023-02-23T14:54:11.451Z,97392.56
2023-02-23T14:56:48.126Z,97373.75
2023-02-23T14:59:21.033Z,97399.25
2023-02-23T15:01:47.844Z,97396.47
2023-02-23T15:04:17.233Z,97386.06
2023-02-23T15:06:47.039Z,97388.44
2023-02-23T15:09:18.598Z,97384.53
2023-02-23T15:11:49.972Z,97367.75
2023-02-23T15:14:27.454Z,97335.84
2023-02-23T15:16:57.391Z,97272.63
2023-02-23T15:19:25.879Z,97243.44
2023-02-23T15:21:53.801Z,97236.91
2023-02-23T15:24:27.514Z,97205.63
2023-02-23T15:26:57.493Z,97172.97
2023-02-23T15:29:26.694Z,97168.34
2023-02-23T15:31:55.391Z,97155.63
2023-02-23T15:34:24.554Z,97126.09
2023-02-23T15:36:53.823Z,97083.94
2023-02-23T15:39:24.203Z,97089.03
2023-02-23T15:41:50.782Z,97074.66
2023-02-23T15:44:22.839Z,97052.00
2023-02-23T15:47:09.657Z,97005.56
2023-02-23T15:49:38.281Z,97014.00
2023-02-23T15:52:09.155Z,97013.69
2023-02-23T15:54:54.091Z,96994.34
2023-02-23T15:57:22.862Z,96966.91
2023-02-23T15:59:51.298Z,96978.00
2023-02-23T16:02:19.610Z,96974.69
2023-02-23T16:04:49.930Z,96991.75
2023-02-23T16:07:24.265Z,96955.63
2023-02-23T16:10:05.982Z,96966.53
2023-02-23T16:12:36.124Z,96964.19
2023-02-23T16:15:14.622Z,96963.53
2023-02-23T16:17:45.610Z,96906.91
2023-02-23T16:20:12.277Z,96889.16
2023-02-23T16:22:41.917Z,96895.75
2023-02-23T16:25:13.537Z,96904.25
2023-02-23T16:27:40.393Z,96911.19
2023-02-23T16:30:17.330Z,96902.84
2023-02-23T16:32:44.191Z,96949.66
2023-02-23T16:35:20.410Z,96948.09
2023-02-23T16:37:52.045Z,96940.56
2023-02-23T16:40:18.689Z,96924.50
2023-02-23T16:42:46.502Z,96910.53
2023-02-23T16:45:14.969Z,96906.88
2023-02-23T16:47:44.712Z,96884.88
2023-02-23T16:50:21.217Z,96895.72
2023-02-23T16:52:51.802Z,96886.75
2023-02-23T16:55:19.314Z,96897.38
2023-02-23T16:57:49.510Z,96912.78
2023-02-23T17:00:21.944Z,96936.41
2023-02-23T17:02:48.737Z,96940.56
2023-02-23T17:05:18.884Z,96930.91
2023-02-23T17:07:45.588Z,96933.88
2023-02-23T17:10:23.363Z,96956.16
2023-02-23T17:12:49.849Z,96956.03
2023-02-23T17:15:17.960Z,96956.91
2023-02-23T17:17:44.619Z,96961.94
2023-02-23T17:20:17.525Z,96967.97
2023-02-23T17:22:44.234Z,96993.94
2023-02-23T17:25:12.918Z,97003.78
2023-02-23T17:27:40.235Z,96996.53
2023-02-23T17:30:07.154Z,97007.16
2023-02-23T17:32:35.151Z,97015.22
2023-02-23T17:35:01.967Z,97019.13
2023-02-23T17:37:28.479Z,97025.03
2023-02-23T17:39:54.965Z,97032.50
2023-02-23T17:42:22.808Z,97036.81
2023-02-23T17:44:49.368Z,97044.91
2023-02-23T17:47:16.539Z,97056.09
2023-02-23T17:49:42.988Z,97060.84
2023-02-23T17:52:09.442Z,97073.13
2023-02-23T17:54:35.941Z,97082.91
2023-02-23T17:57:02.526Z,97079.38
2023-02-23T17:59:30.076Z,97094.16
2023-02-23T18:01:56.585Z,97080.34
2023-02-23T18:04:23.218Z,97090.44
2023-02-23T18:06:49.728Z,97076.09
2023-02-23T18:09:16.236Z,97062.19
2023-02-23T18:11:42.761Z,97113.75
2023-02-23T18:14:13.777Z,97073.94
2023-02-23T18:16:40.897Z,97051.69
2023-02-23T18:19:07.391Z,97039.66
2023-02-23T18:21:35.968Z,96992.22
2023-02-23T18:24:03.629Z,96994.50
2023-02-23T18:26:30.188Z,96979.72
2023-02-23T18:28:58.134Z,96985.19
2023-02-23T18:31:28.281Z,96963.78
2023-02-23T18:33:55.096Z,96951.41
2023-02-23T18:36:21.657Z,96901.91
2023-02-23T18:38:48.346Z,96873.22
2023-02-23T18:41:14.814Z,96871.84
2023-02-23T18:43:42.479Z,96849.47
2023-02-23T18:46:09.796Z,96827.50
2023-02-23T18:48:38.087Z,96854.59
2023-02-23T18:51:12.290Z,96859.19
2023-02-23T18:53:39.094Z,96866.72
2023-02-23T18:56:06.462Z,96889.09
2023-02-23T18:58:33.506Z,96908.25
2023-02-23T19:01:00.095Z,96950.25
2023-02-23T19:03:27.734Z,96936.38
2023-02-23T19:05:55.659Z,96912.88
2023-02-23T19:08:23.769Z,96909.50
2023-02-23T19:10:52.050Z,96918.34
2023-02-23T19:13:22.099Z,96914.28
2023-02-23T19:15:49.822Z,96914.59
2023-02-23T19:18:16.487Z,96926.09
2023-02-23T19:20:42.956Z,96937.50
2023-02-23T19:23:12.179Z,96926.63
2023-02-23T19:25:41.108Z,96913.25
2023-02-23T19:28:09.382Z,96921.88
2023-02-23T19:30:35.900Z,96950.22
2023-02-23T19:33:03.485Z,96949.19
2023-02-23T19:35:30.122Z,96973.84
2023-02-23T19:37:59.452Z,96967.88
2023-02-23T19:40:29.215Z,96971.97
2023-02-23T19:42:55.803Z,97007.91
2023-02-23T19:45:22.499Z,97019.91
2023-02-23T19:47:51.044Z,97041.03
2023-02-23T19:50:18.971Z,97015.56
2023-02-23T19:52:47.565Z,96960.34
2023-02-23T19:55:14.699Z,96934.03
2023-02-23T19:57:41.527Z,96940.47
2023-02-23T20:00:12.221Z,96929.34
2023-02-23T20:02:44.973Z,96915.06
2023-02-23T20:05:13.481Z,96977.34
2023-02-23T20:07:40.112Z,96979.25
2023-02-23T20:10:10.183Z,96955.88
2023-02-23T20:12:37.979Z,96892.56
2023-02-23T20:15:04.625Z,96869.00
2023-02-23T20:17:32.496Z,96930.03
2023-02-23T20:20:00.145Z,96939.31
2023-02-23T20:22:27.183Z,96917.81
2023-02-23T20:24:55.093Z,96904.84
2023-02-23T20:27:22.665Z,96851.94
2023-02-23T20:29:50.821Z,96843.47
2023-02-23T20:32:17.572Z,96848.50
2023-02-23T20:34:45.909Z,96828.53
2023-02-23T20:37:12.526Z,96843.47
2023-02-23T20:39:40.390Z,96880.31
2023-02-23T20:42:06.834Z,96898.91
2023-02-23T20:44:33.430Z,96863.25
2023-02-23T20:47:01.018Z,96850.19
2023-02-23T20:49:27.645Z,96820.06
2023-02-23T20:51:54.416Z,96797.41
2023-02-23T20:54:22.181Z,96832.50
2023-02-23T20:56:58.828Z,96858.09
2023-02-23T20:59:30.532Z,96879.88
2023-02-23T21:01:56.970Z,96862.13
2023-02-23T21:04:23.464Z,96840.06
2023-02-23T21:06:49.966Z,96864.00
2023-02-23T21:09:19.155Z,96900.09
2023-02-23T21:11:48.045Z,96896.13
2023-02-23T21:14:14.879Z,96876.78
2023-02-23T21:16:46.466Z,96843.91
2023-02-23T21:19:13.973Z,96770.44
2023-02-23T21:21:43.468Z,96704.44
2023-02-23T21:24:12.432Z,96681.66
2023-02-23T21:26:42.543Z,96666.50
2023-02-23T21:29:11.819Z,96700.41
2023-02-23T21:31:39.645Z,96728.41
2023-02-23T21:34:06.545Z,96742.50
2023-02-23T21:36:33.720Z,96734.91
2023-02-23T21:39:01.469Z,96730.06
2023-02-23T21:41:33.952Z,96723.44
2023-02-23T21:44:01.447Z,96713.03
2023-02-23T21:46:28.033Z,96739.22
2023-02-23T21:48:54.529Z,96761.31
2023-02-23T21:51:21.326Z,96766.72
2023-02-23T21:53:48.137Z,96749.06
2023-02-23T21:56:22.502Z,96707.25
2023-02-23T21:58:53.237Z,96737.00
2023-02-23T22:01:22.063Z,96779.38
2023-02-23T22:03:48.897Z,96782.00
2023-02-23T22:06:16.571Z,96772.78
2023-02-23T22:08:43.280Z,96776.22
2023-02-23T22:11:19.227Z,96803.72
2023-02-23T22:13:50.141Z,96790.16
2023-02-23T22:16:19.119Z,96823.69
2023-02-23T22:18:46.625Z,96857.66
2023-02-23T22:21:13.936Z,96848.63
2023-02-23T22:23:44.887Z,96846.00
2023-02-23T22:26:12.515Z,96822.88
2023-02-23T22:28:39.059Z,96844.59
2023-02-23T22:31:07.396Z,96855.00
2023-02-23T22:33:36.092Z,96836.88
2023-02-23T22:36:03.907Z,96785.72
2023-02-23T22:38:32.132Z,96732.41
2023-02-23T22:40:59.537Z,96705.69
2023-02-23T22:43:27.352Z,96670.06
2023-02-23T22:45:54.771Z,96674.69
2023-02-23T22:48:23.642Z,96681.66
2023-02-23T22:50:50.422Z,96683.78
2023-02-23T22:53:18.672Z,96688.44
2023-02-23T22:55:48.979Z,96693.22
2023-02-23T22:58:15.780Z,96714.63
2023-02-23T23:01:02.103Z,96715.09
2023-02-23T23:03:29.507Z,96707.06
2023-02-23T23:05:56.934Z,96710.19
2023-02-23T23:08:24.002Z,96708.72
2023-02-23T23:10:50.756Z,96707.81
2023-02-23T23:13:17.732Z,96696.97
2023-02-23T23:15:44.273Z,96686.22
2023-02-23T23:18:14.387Z,96691.19
2023-02-23T23:20:43.997Z,96688.16
2023-02-23T23:23:10.490Z,96688.81
2023-02-23T23:25:41.788Z,96733.59
2023-02-23T23:28:10.624Z,96766.03
2023-02-23T23:30:37.109Z,96768.41
2023-02-23T23:33:04.835Z,96751.03
2023-02-23T23:35:34.343Z,96732.00
2023-02-23T23:38:03.098Z,96716.22
2023-02-23T23:40:30.086Z,96668.31
2023-02-23T23:42:56.550Z,96668.69
2023-02-23T23:45:26.018Z,96711.66
2023-02-23T23:47:52.575Z,96667.44
2023-02-23T23:50:19.049Z,96607.16
2023-02-23T23:52:45.690Z,96578.63
2023-02-23T23:55:16.101Z,96560.31
2023-02-23T23:57:42.869Z,96560.41
